createdAt,value
2023-02-18T00:01:43.961Z,13.43
2023-02-18T00:04:19.360Z,13.70
2023-02-18T00:06:47.595Z,13.53
2023-02-18T00:09:22.443Z,13.67
2023-02-18T00:11:50.853Z,14.70
2023-02-18T00:14:26.415Z,14.00
2023-02-18T00:16:56.216Z,13.57
2023-02-18T00:19:31.425Z,14.10
2023-02-18T00:21:59.698Z,13.70
2023-02-18T00:24:34.431Z,13.67
2023-02-18T00:27:02.798Z,14.17
2023-02-18T00:29:37.422Z,14.73
2023-02-18T00:32:07.186Z,13.73
2023-02-18T00:34:42.428Z,13.50
2023-02-18T00:37:30.432Z,13.50
2023-02-18T00:39:58.800Z,12.43
2023-02-18T00:42:27.498Z,12.10
2023-02-18T00:45:02.584Z,12.57
2023-02-18T00:47:32.352Z,12.47
2023-02-18T00:50:07.418Z,11.30
2023-02-18T00:52:35.747Z,11.60
2023-02-18T00:55:10.417Z,11.13
2023-02-18T00:57:38.679Z,11.37
2023-02-18T01:00:15.474Z,11.43
2023-02-18T01:02:51.428Z,10.20
2023-02-18T01:05:19.909Z,10.33
2023-02-18T01:07:54.462Z,9.60
2023-02-18T01:10:22.868Z,9.50
2023-02-18T01:12:58.510Z,9.43
2023-02-18T01:15:27.118Z,8.20
2023-02-18T01:18:03.485Z,8.87
2023-02-18T01:20:32.372Z,8.00
2023-02-18T01:23:07.531Z,7.73
2023-02-18T01:25:36.471Z,8.00
2023-02-18T01:28:12.521Z,7.77
2023-02-18T01:30:41.013Z,7.00
2023-02-18T01:33:17.491Z,6.70
2023-02-18T01:36:07.940Z,6.90
2023-02-18T01:38:43.486Z,6.43
2023-02-18T01:41:12.243Z,6.50
2023-02-18T01:43:47.477Z,6.27
2023-02-18T01:46:18.736Z,6.13
2023-02-18T01:48:59.515Z,6.00
2023-02-18T01:51:30.169Z,5.40
2023-02-18T01:54:10.483Z,5.17
2023-02-18T01:56:42.186Z,4.40
2023-02-18T01:59:20.520Z,4.43
2023-02-18T02:01:49.325Z,4.37
2023-02-18T02:04:25.542Z,3.73
2023-02-18T02:06:53.825Z,3.43
2023-02-18T02:09:30.488Z,3.53
2023-02-18T02:12:23.042Z,3.10
2023-02-18T02:15:24.485Z,2.90
2023-02-18T02:18:14.922Z,2.53
2023-02-18T02:21:25.522Z,2.80
2023-02-18T02:24:39.575Z,2.40
2023-02-18T02:27:23.583Z,2.53
2023-02-18T02:30:30.555Z,2.40
2023-02-18T02:33:31.395Z,2.30
2023-02-18T02:36:14.552Z,2.30
2023-02-18T02:38:57.672Z,2.03
2023-02-18T02:41:47.506Z,2.10
2023-02-18T02:44:22.431Z,2.13
2023-02-18T02:47:01.546Z,2.20
2023-02-18T02:49:46.580Z,2.00
2023-02-18T02:52:29.575Z,2.00
2023-02-18T02:54:58.177Z,2.20
2023-02-18T02:57:56.563Z,1.90
2023-02-18T03:00:39.023Z,2.10
2023-02-18T03:03:36.580Z,2.30
2023-02-18T03:06:31.560Z,2.07
2023-02-18T03:09:11.453Z,2.37
2023-02-18T03:11:54.566Z,2.63
2023-02-18T03:14:29.818Z,2.40
2023-02-18T03:17:10.605Z,2.70
2023-02-18T03:19:43.902Z,2.77
2023-02-18T03:22:24.577Z,2.80
2023-02-18T03:24:57.768Z,2.80
2023-02-18T03:27:35.580Z,2.57
2023-02-18T03:30:08.080Z,2.40
2023-02-18T03:32:43.570Z,2.53
2023-02-18T03:35:15.254Z,2.40
2023-02-18T03:38:07.587Z,2.50
2023-02-18T03:40:38.555Z,2.50
2023-02-18T03:43:13.615Z,2.63
2023-02-18T03:45:41.887Z,2.53
2023-02-18T03:48:16.601Z,2.30
2023-02-18T03:50:44.842Z,2.20
2023-02-18T03:53:19.655Z,1.97
2023-02-18T03:55:49.410Z,2.03
2023-02-18T03:58:24.603Z,2.27
2023-02-18T04:00:57.186Z,2.13
2023-02-18T04:03:31.975Z,1.90
2023-02-18T04:06:00.444Z,1.60
2023-02-18T04:08:35.625Z,2.00
2023-02-18T04:11:06.052Z,1.60
2023-02-18T04:13:41.673Z,1.60
2023-02-18T04:16:10.274Z,1.70
2023-02-18T04:18:45.616Z,1.90
2023-02-18T04:21:14.041Z,1.90
2023-02-18T04:23:48.632Z,1.90
2023-02-18T04:26:18.274Z,1.93
2023-02-18T04:28:52.629Z,2.20
2023-02-18T04:31:21.017Z,2.20
2023-02-18T04:33:55.759Z,2.10
2023-02-18T04:36:43.625Z,2.10
2023-02-18T04:39:18.620Z,2.20
2023-02-18T04:41:48.485Z,2.13
2023-02-18T04:44:23.679Z,2.07
2023-02-18T04:46:52.029Z,2.10
2023-02-18T04:49:26.710Z,2.00
2023-02-18T04:51:55.063Z,2.03
2023-02-18T04:54:29.727Z,2.03
2023-02-18T04:56:59.422Z,2.13
2023-02-18T04:59:34.692Z,1.90
2023-02-18T05:02:03.200Z,2.13
2023-02-18T05:04:37.813Z,2.00
2023-02-18T05:07:06.413Z,2.20
2023-02-18T05:09:41.718Z,1.90
2023-02-18T05:12:11.605Z,2.10
2023-02-18T05:14:46.681Z,1.90
2023-02-18T05:17:14.997Z,2.00
2023-02-18T05:19:49.714Z,2.07
2023-02-18T05:22:18.113Z,2.40
2023-02-18T05:24:52.701Z,2.10
2023-02-18T05:27:22.722Z,2.40
2023-02-18T05:29:57.768Z,2.20
2023-02-18T05:32:26.058Z,1.90
2023-02-18T05:35:00.725Z,2.30
2023-02-18T05:37:48.674Z,2.20
2023-02-18T05:40:23.708Z,1.90
2023-02-18T05:42:53.541Z,2.10
2023-02-18T05:45:28.740Z,2.10
2023-02-18T05:47:57.044Z,2.00
2023-02-18T05:50:31.701Z,1.87
2023-02-18T05:52:59.955Z,1.77
2023-02-18T05:55:34.727Z,2.23
2023-02-18T05:58:04.456Z,2.10
2023-02-18T06:00:39.746Z,2.10
2023-02-18T06:03:07.982Z,1.63
2023-02-18T06:05:42.805Z,1.80
2023-02-18T06:08:11.060Z,1.50
2023-02-18T06:10:47.717Z,1.20
2023-02-18T06:13:23.731Z,1.30
2023-02-18T06:15:52.648Z,1.20
2023-02-18T06:18:27.726Z,1.37
2023-02-18T06:20:56.369Z,1.23
2023-02-18T06:23:30.724Z,1.20
2023-02-18T06:25:59.033Z,1.23
2023-02-18T06:28:35.746Z,1.43
2023-02-18T06:31:04.199Z,1.60
2023-02-18T06:33:38.758Z,1.60
2023-02-18T06:36:14.441Z,1.70
2023-02-18T06:38:50.818Z,2.13
2023-02-18T06:41:19.525Z,2.30
2023-02-18T06:43:55.812Z,2.10
2023-02-18T06:46:24.130Z,2.30
2023-02-18T06:48:58.818Z,2.60
2023-02-18T06:51:27.408Z,2.27
2023-02-18T06:54:01.792Z,2.40
2023-02-18T06:56:31.055Z,2.43
2023-02-18T06:59:07.752Z,2.50
2023-02-18T07:01:36.330Z,2.63
2023-02-18T07:04:10.764Z,2.37
2023-02-18T07:06:38.985Z,2.80
2023-02-18T07:09:14.803Z,2.73
2023-02-18T07:11:43.236Z,2.53
2023-02-18T07:14:19.806Z,2.40
2023-02-18T07:16:48.221Z,2.50
2023-02-18T07:19:22.782Z,2.60
2023-02-18T07:21:51.298Z,2.60
2023-02-18T07:24:26.092Z,2.50
2023-02-18T07:26:54.708Z,3.30
2023-02-18T07:29:30.821Z,2.33
2023-02-18T07:31:59.158Z,3.07
2023-02-18T07:34:33.867Z,2.73
2023-02-18T07:37:10.291Z,2.53
2023-02-18T07:39:51.817Z,3.17
2023-02-18T07:42:20.423Z,3.00
2023-02-18T07:44:56.785Z,2.47
2023-02-18T07:47:25.109Z,2.87
2023-02-18T07:49:59.815Z,2.50
2023-02-18T07:52:28.092Z,2.40
2023-02-18T07:55:02.818Z,3.03
2023-02-18T07:57:31.419Z,2.93
2023-02-18T08:00:07.830Z,2.77
2023-02-18T08:02:36.112Z,3.27
2023-02-18T08:05:10.844Z,2.70
2023-02-18T08:07:42.141Z,2.83
2023-02-18T08:10:17.819Z,2.37
2023-02-18T08:12:46.056Z,2.63
2023-02-18T08:15:24.866Z,2.77
2023-02-18T08:17:53.848Z,3.07
2023-02-18T08:20:30.591Z,3.20
2023-02-18T08:22:59.232Z,2.30
2023-02-18T08:25:33.848Z,2.77
2023-02-18T08:28:02.139Z,3.10
2023-02-18T08:30:38.943Z,2.50
2023-02-18T08:33:07.283Z,2.83
2023-02-18T08:35:42.990Z,2.73
2023-02-18T08:38:18.690Z,2.87
2023-02-18T08:40:53.896Z,3.20
2023-02-18T08:43:22.140Z,3.00
2023-02-18T08:45:58.877Z,2.40
2023-02-18T08:48:28.152Z,2.80
2023-02-18T08:51:03.011Z,2.73
2023-02-18T08:53:31.264Z,2.63
2023-02-18T08:56:05.901Z,2.30
2023-02-18T08:58:37.228Z,2.47
2023-02-18T09:01:16.938Z,2.60
2023-02-18T09:03:45.468Z,2.50
2023-02-18T09:06:19.897Z,2.60
2023-02-18T09:08:48.083Z,1.93
2023-02-18T09:11:22.905Z,2.47
2023-02-18T09:13:51.173Z,2.40
2023-02-18T09:16:26.872Z,2.30
2023-02-18T09:18:55.467Z,2.40
2023-02-18T09:21:30.908Z,2.13
2023-02-18T09:24:00.180Z,1.90
2023-02-18T09:26:36.028Z,2.10
2023-02-18T09:29:04.448Z,2.37
2023-02-18T09:31:40.965Z,2.17
2023-02-18T09:34:09.601Z,2.10
2023-02-18T09:36:44.883Z,2.00
2023-02-18T09:39:20.168Z,2.20
2023-02-18T09:41:57.872Z,2.27
2023-02-18T09:44:35.931Z,2.10
2023-02-18T09:47:08.106Z,1.90
2023-02-18T09:49:45.887Z,2.30
2023-02-18T09:52:17.269Z,2.00
2023-02-18T09:54:51.925Z,1.83
2023-02-18T09:57:27.305Z,1.50
2023-02-18T10:00:06.918Z,1.80
2023-02-18T10:02:44.905Z,1.77
2023-02-18T10:05:15.987Z,2.00
2023-02-18T10:07:51.935Z,1.83
2023-02-18T10:10:35.760Z,1.60
2023-02-18T10:13:10.954Z,1.83
2023-02-18T10:15:40.117Z,1.90
2023-02-18T10:18:33.233Z,1.70
2023-02-18T10:21:07.990Z,1.90
2023-02-18T10:23:45.923Z,2.00
2023-02-18T10:26:17.903Z,1.87
2023-02-18T10:28:53.951Z,1.87
2023-02-18T10:31:27.354Z,1.90
2023-02-18T10:34:07.944Z,1.70
2023-02-18T10:36:49.145Z,1.80
2023-02-18T10:39:44.984Z,1.93
2023-02-18T10:42:29.487Z,2.00
2023-02-18T10:45:15.965Z,2.37
2023-02-18T10:47:54.610Z,2.10
2023-02-18T10:50:37.025Z,1.83
2023-02-18T10:53:20.738Z,2.07
2023-02-18T10:55:56.951Z,1.60
2023-02-18T10:58:50.424Z,1.93
2023-02-18T11:01:21.818Z,1.70
2023-02-18T11:03:58.976Z,2.00
2023-02-18T11:06:32.795Z,1.80
2023-02-18T11:09:07.958Z,1.87
2023-02-18T11:11:40.142Z,1.90
2023-02-18T11:14:22.089Z,2.03
2023-02-18T11:16:53.710Z,1.70
2023-02-18T11:19:41.327Z,1.97
2023-02-18T11:22:17.916Z,2.20
2023-02-18T11:24:55.002Z,1.90
2023-02-18T11:27:28.214Z,2.07
2023-02-18T11:30:07.078Z,2.30
2023-02-18T11:32:38.088Z,2.00
2023-02-18T11:35:13.978Z,2.13
2023-02-18T11:37:50.292Z,2.30
2023-02-18T11:40:30.989Z,2.20
2023-02-18T11:43:06.738Z,2.37
2023-02-18T11:45:43.019Z,2.30
2023-02-18T11:48:18.733Z,1.80
2023-02-18T11:50:58.041Z,2.07
2023-02-18T11:53:39.008Z,2.00
2023-02-18T11:56:17.741Z,1.97
2023-02-18T11:58:56.143Z,2.37
2023-02-18T12:01:37.901Z,2.07
2023-02-18T12:04:19.036Z,2.20
2023-02-18T12:06:53.247Z,1.80
2023-02-18T12:09:35.028Z,1.60
2023-02-18T12:12:07.717Z,2.03
2023-02-18T12:14:45.318Z,2.30
2023-02-18T12:17:32.009Z,2.10
2023-02-18T12:20:34.034Z,2.10
2023-02-18T12:23:07.431Z,1.73
2023-02-18T12:25:52.051Z,1.90
2023-02-18T12:28:30.990Z,2.23
2023-02-18T12:31:37.097Z,2.77
2023-02-18T12:34:36.000Z,3.50
2023-02-18T12:37:22.233Z,3.10
2023-02-18T12:40:09.251Z,2.40
2023-02-18T12:42:56.070Z,3.13
2023-02-18T12:45:43.347Z,2.80
2023-02-18T12:48:41.058Z,2.37
2023-02-18T12:52:07.289Z,2.90
2023-02-18T12:54:49.540Z,2.90
2023-02-18T12:57:40.609Z,2.43
2023-02-18T13:00:36.516Z,2.83
2023-02-18T13:03:47.392Z,2.40
2023-02-18T13:06:31.595Z,2.77
2023-02-18T13:09:15.425Z,2.73
2023-02-18T13:11:52.553Z,3.00
2023-02-18T13:14:31.296Z,2.83
2023-02-18T13:17:04.482Z,2.87
2023-02-18T13:19:45.282Z,3.00
2023-02-18T13:22:17.290Z,2.90
2023-02-18T13:24:57.382Z,3.00
2023-02-18T13:27:31.565Z,2.80
2023-02-18T13:30:22.482Z,3.23
2023-02-18T13:33:02.097Z,3.70
2023-02-18T13:35:44.427Z,3.00
2023-02-18T13:38:54.243Z,2.57
2023-02-18T13:41:33.431Z,3.33
2023-02-18T13:44:02.081Z,3.13
2023-02-18T13:46:37.305Z,3.30
2023-02-18T13:49:09.144Z,3.37
2023-02-18T13:51:55.409Z,3.40
2023-02-18T13:54:30.343Z,3.47
2023-02-18T13:57:10.331Z,2.97
2023-02-18T13:59:43.398Z,3.20
2023-02-18T14:02:38.704Z,3.83
2023-02-18T14:05:22.838Z,3.27
2023-02-18T14:08:01.662Z,3.13
2023-02-18T14:10:35.269Z,3.43
2023-02-18T14:13:46.811Z,3.50
2023-02-18T14:16:16.238Z,3.20
2023-02-18T14:19:08.684Z,3.20
2023-02-18T14:21:41.067Z,3.33
2023-02-18T14:24:19.438Z,3.10
2023-02-18T14:26:50.631Z,3.00
2023-02-18T14:29:38.347Z,3.27
2023-02-18T14:32:13.030Z,2.67
2023-02-18T14:35:12.439Z,3.13
2023-02-18T14:38:10.673Z,3.13
2023-02-18T14:41:11.788Z,2.97
2023-02-18T14:44:21.905Z,4.00
2023-02-18T14:47:14.799Z,3.33
2023-02-18T14:49:53.329Z,3.87
2023-02-18T14:52:40.742Z,3.27
2023-02-18T14:55:17.463Z,3.03
2023-02-18T14:57:56.427Z,3.47
2023-02-18T15:00:28.336Z,3.10
2023-02-18T15:03:04.433Z,3.30
2023-02-18T15:05:34.713Z,2.90
2023-02-18T15:08:11.868Z,3.27
2023-02-18T15:10:42.589Z,2.90
2023-02-18T15:13:24.487Z,2.90
2023-02-18T15:15:56.145Z,3.00
2023-02-18T15:18:40.508Z,2.90
2023-02-18T15:21:11.627Z,2.60
2023-02-18T15:23:49.606Z,2.60
2023-02-18T15:26:18.736Z,2.50
2023-02-18T15:29:02.511Z,2.47
2023-02-18T15:31:37.391Z,3.20
2023-02-18T15:34:37.537Z,2.60
2023-02-18T15:37:13.791Z,2.60
2023-02-18T15:39:49.526Z,2.87
2023-02-18T15:42:26.534Z,2.73
2023-02-18T15:45:05.447Z,2.50
2023-02-18T15:47:34.575Z,2.97
2023-02-18T15:50:12.577Z,2.50
2023-02-18T15:52:49.382Z,2.60
2023-02-18T15:55:30.505Z,3.30
2023-02-18T15:58:02.261Z,2.80
2023-02-18T16:00:40.604Z,2.47
2023-02-18T16:03:16.561Z,2.70
2023-02-18T16:05:53.541Z,2.77
2023-02-18T16:08:27.026Z,3.03
2023-02-18T16:11:04.512Z,2.63
2023-02-18T16:13:34.441Z,3.00
2023-02-18T16:16:09.772Z,2.70
2023-02-18T16:18:41.000Z,2.73
2023-02-18T16:21:33.816Z,2.63
2023-02-18T16:24:04.540Z,3.00
2023-02-18T16:26:48.903Z,3.27
2023-02-18T16:29:23.859Z,2.83
2023-02-18T16:32:01.853Z,3.70
2023-02-18T16:34:30.494Z,3.10
2023-02-18T16:37:24.837Z,3.07
2023-02-18T16:39:55.386Z,3.10
2023-02-18T16:42:32.505Z,4.33
2023-02-18T16:45:01.399Z,3.20
2023-02-18T16:47:36.811Z,3.13
2023-02-18T16:50:30.608Z,3.47
2023-02-18T16:53:09.972Z,3.27
2023-02-18T16:55:38.758Z,3.27
2023-02-18T16:58:13.539Z,3.40
2023-02-18T17:00:42.218Z,3.13
2023-02-18T17:03:19.533Z,3.37
2023-02-18T17:05:48.278Z,3.33
2023-02-18T17:08:29.809Z,2.90
2023-02-18T17:11:00.125Z,3.63
2023-02-18T17:13:38.788Z,3.50
2023-02-18T17:16:12.206Z,3.87
2023-02-18T17:18:47.840Z,3.20
2023-02-18T17:21:17.640Z,3.40
2023-02-18T17:23:54.930Z,3.17
2023-02-18T17:26:26.588Z,3.33
2023-02-18T17:29:03.867Z,3.30
2023-02-18T17:31:35.496Z,3.30
2023-02-18T17:34:13.859Z,3.00
2023-02-18T17:36:45.504Z,3.20
2023-02-18T17:39:25.573Z,2.87
2023-02-18T17:41:54.116Z,3.33
2023-02-18T17:44:35.879Z,3.57
2023-02-18T17:47:04.790Z,3.00
2023-02-18T17:49:39.547Z,3.13
2023-02-18T17:52:37.695Z,3.53
2023-02-18T17:55:18.896Z,3.60
2023-02-18T17:57:53.858Z,3.80
2023-02-18T18:00:25.938Z,3.33
2023-02-18T18:03:01.570Z,3.47
2023-02-18T18:05:32.627Z,4.07
2023-02-18T18:08:08.936Z,3.50
2023-02-18T18:10:42.084Z,4.03
2023-02-18T18:13:26.048Z,4.33
2023-02-18T18:15:58.047Z,3.80
2023-02-18T18:21:25.437Z,3.90
2023-02-18T18:24:00.879Z,4.10
2023-02-18T18:26:31.286Z,4.10
2023-02-18T18:29:07.040Z,4.23
2023-02-18T18:31:36.879Z,4.50
2023-02-18T18:34:12.724Z,4.60
2023-02-18T18:36:41.605Z,4.43
2023-02-18T18:39:17.593Z,4.37
2023-02-18T18:41:48.831Z,4.50
2023-02-18T18:44:23.629Z,4.27
2023-02-18T18:46:54.484Z,5.30
2023-02-18T18:49:29.927Z,4.37
2023-02-18T18:52:05.284Z,4.70
2023-02-18T18:54:40.731Z,5.50
2023-02-18T18:57:11.144Z,8.17
2023-02-18T18:59:46.957Z,5.70
2023-02-18T19:02:18.597Z,5.27
2023-02-18T19:04:54.007Z,5.37
2023-02-18T19:07:22.824Z,5.27
2023-02-18T19:09:57.742Z,5.40
2023-02-18T19:12:29.369Z,5.87
2023-02-18T19:15:04.981Z,5.93
2023-02-18T19:17:33.494Z,5.97
2023-02-18T19:20:08.990Z,5.30
2023-02-18T19:22:37.764Z,5.97
2023-02-18T19:25:14.004Z,6.50
2023-02-18T19:27:47.262Z,6.73
2023-02-18T19:30:25.789Z,6.50
2023-02-18T19:32:55.999Z,6.63
2023-02-18T19:35:31.867Z,8.10
2023-02-18T19:38:01.594Z,7.20
2023-02-18T19:40:38.734Z,7.10
2023-02-18T19:43:09.831Z,7.40
2023-02-18T19:45:49.695Z,7.87
2023-02-18T19:48:18.384Z,7.77
2023-02-18T19:50:53.790Z,7.97
2023-02-18T19:53:29.108Z,8.40
2023-02-18T19:56:07.773Z,7.40
2023-02-18T19:58:40.246Z,7.27
2023-02-18T20:01:19.840Z,7.70
2023-02-18T20:03:49.915Z,7.20
2023-02-18T20:06:26.884Z,7.20
2023-02-18T20:08:55.695Z,7.47
2023-02-18T20:11:33.207Z,7.23
2023-02-18T20:14:03.646Z,6.30
2023-02-18T20:16:40.049Z,7.20
2023-02-18T20:19:08.956Z,7.13
2023-02-18T20:21:43.790Z,6.13
2023-02-18T20:24:12.681Z,5.93
2023-02-18T20:26:48.819Z,5.83
2023-02-18T20:29:28.798Z,5.40
2023-02-18T20:31:57.794Z,6.23
2023-02-18T20:34:33.097Z,5.30
2023-02-18T20:37:02.899Z,4.97
2023-02-18T20:39:38.099Z,5.10
2023-02-18T20:42:15.776Z,5.07
2023-02-18T20:44:54.080Z,5.20
2023-02-18T20:47:23.114Z,5.10
2023-02-18T20:49:58.887Z,5.10
2023-02-18T20:52:34.926Z,5.00
2023-02-18T20:55:10.061Z,5.70
2023-02-18T20:57:38.834Z,5.33
2023-02-18T21:00:16.817Z,5.63
2023-02-18T21:02:46.386Z,4.83
2023-02-18T21:05:22.127Z,5.20
2023-02-18T21:07:50.932Z,4.60
2023-02-18T21:10:28.113Z,4.60
2023-02-18T21:12:56.608Z,4.53
2023-02-18T21:15:33.164Z,4.37
2023-02-18T21:18:02.836Z,4.40
2023-02-18T21:20:38.149Z,4.73
2023-02-18T21:23:06.908Z,3.90
2023-02-18T21:25:42.842Z,3.40
2023-02-18T21:28:11.382Z,3.50
2023-02-18T21:30:49.798Z,3.70
2023-02-18T21:33:18.454Z,3.53
2023-02-18T21:35:56.129Z,3.10
2023-02-18T21:38:25.176Z,3.57
2023-02-18T21:41:00.920Z,3.47
2023-02-18T21:43:29.723Z,3.30
2023-02-18T21:46:27.837Z,3.60
2023-02-18T21:49:06.239Z,3.53
2023-02-18T21:52:00.796Z,3.60
2023-02-18T21:54:39.435Z,3.07
2023-02-18T21:57:16.893Z,3.30
2023-02-18T21:59:46.605Z,3.10
2023-02-18T22:02:25.902Z,3.30
2023-02-18T22:04:55.239Z,2.87
2023-02-18T22:07:32.896Z,3.40
2023-02-18T22:10:01.764Z,3.30
2023-02-18T22:12:39.067Z,3.30
2023-02-18T22:15:10.230Z,3.27
2023-02-18T22:17:46.888Z,3.50
2023-02-18T22:20:15.531Z,3.40
2023-02-18T22:22:51.172Z,3.43
2023-02-18T22:25:20.008Z,3.37
2023-02-18T22:27:57.057Z,2.93
2023-02-18T22:30:25.819Z,2.90
2023-02-18T22:33:05.225Z,3.50
2023-02-18T22:35:40.915Z,3.50
2023-02-18T22:38:09.511Z,3.30
2023-02-18T22:40:45.114Z,3.33
2023-02-18T22:43:19.284Z,3.37
2023-02-18T22:45:53.915Z,3.10
2023-02-18T22:48:25.397Z,3.40
2023-02-18T22:51:06.905Z,3.00
2023-02-18T22:53:42.708Z,3.80
2023-02-18T22:56:20.943Z,3.70
2023-02-18T22:58:52.233Z,3.70
2023-02-18T23:01:29.287Z,3.80
2023-02-18T23:04:05.691Z,3.67
2023-02-18T23:06:41.201Z,3.90
2023-02-18T23:09:12.504Z,4.30
2023-02-18T23:11:48.083Z,4.40
2023-02-18T23:14:19.765Z,4.63
2023-02-18T23:17:13.280Z,4.43
2023-02-18T23:19:45.101Z,4.93
2023-02-18T23:22:23.149Z,4.77
2023-02-18T23:24:52.103Z,4.63
2023-02-18T23:27:28.292Z,4.97
2023-02-18T23:29:57.342Z,4.90
2023-02-18T23:32:33.889Z,5.07
2023-02-18T23:35:04.637Z,5.00
2023-02-18T23:37:56.916Z,6.10
2023-02-18T23:40:26.878Z,5.47
2023-02-18T23:43:04.396Z,5.60
2023-02-18T23:45:33.288Z,5.67
2023-02-18T23:48:08.314Z,5.63
2023-02-18T23:50:44.574Z,5.80
2023-02-18T23:53:26.200Z,6.27
2023-02-18T23:56:04.197Z,6.30
2023-02-18T23:58:40.242Z,6.23
